Airfield :
LOGIN :

Register | Disclaimer

   EN    FR    IT 

 










Legend :    VFR   Marginal VFR   IFR   Intensive IFR   Very Intensive IFR
Visi :
Ceiling :
>= 8 km
>= 3000ft
5 to 8 km
1000 to 3000 ft
1500m to 5 km
500 to 1000 ft
800 to 1500m
200 to 500 ft
< 800m
< 200 ft
Symbols :   Thunderstorms  Fog  Heavy snow  Heavy precipitations  Wind > 20 kt
SIGMETs :     Misc.  Thunderstorms  Icing  Turbulence  Mountain Waves  Volcanic Ashes







- Airport Elevation : 364 ft
- IATA code : FRA


EDDF - Frankfurt Int.

CURRENT METAR :
  • 251150Z 25008KT 200V300 9999 FEW040 BKN065 BKN150 09/M00 Q1009 NOSIG

EXPIRED METARs :
  • 251120Z 27011KT 240V310 9999 FEW036 BKN050 BKN150 10/M01 Q1009 NOSIG
  • 251050Z 28011KT 250V310 9999 FEW036 BKN050 09/M00 Q1009 NOSIG
  • 251020Z 25010KT 9999 FEW036 BKN048 09/M01 Q1008 NOSIG
  • 250950Z 26009KT 230V290 9999 FEW028 BKN045 08/01 Q1008 NOSIG
  • 250920Z 27008KT 220V300 9999 FEW028 BKN041 08/01 Q1008 NOSIG

TAF TAF EDDF
Valid from the 25 at 12:00 until the 26 at 18:00 UTC


251100Z 2512/2618 29010KT 9999 SCT040
BECMG 2518/2521 28004KT
BECMG 2602/2605 36005KT
TEMPO 2602/2607 BKN030
No reported NOTAMs for that airfield.



MET'MAP, your aeronautical weather chart ! - Copyright ORBIFLY December 2007 - Disclaimer

ORBIFLY MET'MAP TEAM :

Programming & Development : Alexandra Zaïnal
Concept & Development : Baudouin d'Aumeries
Co-Development & Prog : Marc-Olivier Méhu
Technical & hardware support : Manuel Goepfert

Contact : metmap@orbifly.com




SOURCES & CREDITS :

   NOAA